sensor_id;sensor_type;location;lat;lon;timestamp;temperature;humidity
37646;DHT22;23489;49.600;6.138;2023-10-13T00:01:20;15.40;99.90
37646;DHT22;23489;49.600;6.138;2023-10-13T00:03:46;15.30;99.90
37646;DHT22;23489;49.600;6.138;2023-10-13T00:06:11;15.30;99.90
37646;DHT22;23489;49.600;6.138;2023-10-13T00:08:37;15.20;99.90
37646;DHT22;23489;49.600;6.138;2023-10-13T00:11:03;15.20;99.90
37646;DHT22;23489;49.600;6.138;2023-10-13T00:13:30;15.10;99.90
37646;DHT22;23489;49.600;6.138;2023-10-13T00:16:00;15.10;99.90
37646;DHT22;23489;49.600;6.138;2023-10-13T00:18:26;15.10;99.90
37646;DHT22;23489;49.600;6.138;2023-10-13T00:20:53;15.10;99.90
37646;DHT22;23489;49.600;6.138;2023-10-13T00:23:22;15.00;99.90
37646;DHT22;23489;49.600;6.138;2023-10-13T00:25:51;15.00;99.90
37646;DHT22;23489;49.600;6.138;2023-10-13T00:28:23;15.00;99.90
37646;DHT22;23489;49.600;6.138;2023-10-13T00:30:50;15.00;99.90
37646;DHT22;23489;49.600;6.138;2023-10-13T00:33:18;14.90;99.90
37646;DHT22;23489;49.600;6.138;2023-10-13T00:35:49;14.90;99.90
37646;DHT22;23489;49.600;6.138;2023-10-13T00:38:17;14.80;99.90
37646;DHT22;23489;49.600;6.138;2023-10-13T00:40:45;14.80;99.90
37646;DHT22;23489;49.600;6.138;2023-10-13T00:43:20;14.80;99.90
37646;DHT22;23489;49.600;6.138;2023-10-13T00:45:52;14.80;99.90
37646;DHT22;23489;49.600;6.138;2023-10-13T00:48:26;14.80;99.90
37646;DHT22;23489;49.600;6.138;2023-10-13T00:50:59;14.80;99.90
37646;DHT22;23489;49.600;6.138;2023-10-13T00:53:28;14.80;99.90
37646;DHT22;23489;49.600;6.138;2023-10-13T00:55:54;14.80;99.90
37646;DHT22;23489;49.600;6.138;2023-10-13T00:58:23;14.80;99.90
37646;DHT22;23489;49.600;6.138;2023-10-13T01:00:50;14.80;99.90
37646;DHT22;23489;49.600;6.138;2023-10-13T01:03:24;14.90;99.90
37646;DHT22;23489;49.600;6.138;2023-10-13T01:05:55;14.90;99.90
37646;DHT22;23489;49.600;6.138;2023-10-13T01:08:31;14.90;99.90
37646;DHT22;23489;49.600;6.138;2023-10-13T01:11:00;14.90;99.90
37646;DHT22;23489;49.600;6.138;2023-10-13T01:13:25;14.90;99.90
37646;DHT22;23489;49.600;6.138;2023-10-13T01:15:52;14.90;99.90
37646;DHT22;23489;49.600;6.138;2023-10-13T01:18:18;14.90;99.90
37646;DHT22;23489;49.600;6.138;2023-10-13T01:20:43;15.00;99.90
37646;DHT22;23489;49.600;6.138;2023-10-13T01:23:11;15.00;99.90
37646;DHT22;23489;49.600;6.138;2023-10-13T01:25:50;15.00;99.90
37646;DHT22;23489;49.600;6.138;2023-10-13T01:28:16;15.00;99.90
37646;DHT22;23489;49.600;6.138;2023-10-13T01:30:42;15.10;99.90
37646;DHT22;23489;49.600;6.138;2023-10-13T01:33:08;15.10;99.90
37646;DHT22;23489;49.600;6.138;2023-10-13T01:35:36;15.20;99.90
37646;DHT22;23489;49.600;6.138;2023-10-13T01:38:07;15.20;99.90
37646;DHT22;23489;49.600;6.138;2023-10-13T01:40:33;15.20;99.90
37646;DHT22;23489;49.600;6.138;2023-10-13T01:43:00;15.30;99.90
37646;DHT22;23489;49.600;6.138;2023-10-13T01:45:26;15.30;99.90
37646;DHT22;23489;49.600;6.138;2023-10-13T01:47:54;15.40;99.90
37646;DHT22;23489;49.600;6.138;2023-10-13T01:50:20;15.40;99.90
37646;DHT22;23489;49.600;6.138;2023-10-13T01:52:53;15.50;99.90
37646;DHT22;23489;49.600;6.138;2023-10-13T01:55:25;15.50;99.90
37646;DHT22;23489;49.600;6.138;2023-10-13T01:57:51;15.50;99.90
37646;DHT22;23489;49.600;6.138;2023-10-13T02:00:17;15.40;99.90
37646;DHT22;23489;49.600;6.138;2023-10-13T02:02:46;15.40;99.90
37646;DHT22;23489;49.600;6.138;2023-10-13T02:05:15;15.40;99.90
37646;DHT22;23489;49.600;6.138;2023-10-13T02:07:42;15.40;99.90
37646;DHT22;23489;49.600;6.138;2023-10-13T02:10:11;15.40;99.90
37646;DHT22;23489;49.600;6.138;2023-10-13T02:12:38;15.40;99.90
37646;DHT22;23489;49.600;6.138;2023-10-13T02:15:11;15.40;99.90
37646;DHT22;23489;49.600;6.138;2023-10-13T02:17:46;15.40;99.90
37646;DHT22;23489;49.600;6.138;2023-10-13T02:20:17;15.40;99.90
37646;DHT22;23489;49.600;6.138;2023-10-13T02:22:55;15.40;99.90
37646;DHT22;23489;49.600;6.138;2023-10-13T02:25:21;15.40;99.90
37646;DHT22;23489;49.600;6.138;2023-10-13T02:28:08;15.40;99.90
37646;DHT22;23489;49.600;6.138;2023-10-13T02:30:52;15.40;99.90
37646;DHT22;23489;49.600;6.138;2023-10-13T02:33:18;15.40;99.90
37646;DHT22;23489;49.600;6.138;2023-10-13T02:35:47;15.50;99.90
37646;DHT22;23489;49.600;6.138;2023-10-13T02:38:19;15.50;99.90
37646;DHT22;23489;49.600;6.138;2023-10-13T02:41:00;15.50;99.90
37646;DHT22;23489;49.600;6.138;2023-10-13T02:43:34;15.50;99.90
37646;DHT22;23489;49.600;6.138;2023-10-13T02:46:00;15.50;99.90
37646;DHT22;23489;49.600;6.138;2023-10-13T02:48:27;15.60;99.90
37646;DHT22;23489;49.600;6.138;2023-10-13T02:51:05;15.60;99.90
37646;DHT22;23489;49.600;6.138;2023-10-13T02:53:41;15.60;99.90
37646;DHT22;23489;49.600;6.138;2023-10-13T02:56:06;15.60;99.90
37646;DHT22;23489;49.600;6.138;2023-10-13T02:58:33;15.60;99.90
37646;DHT22;23489;49.600;6.138;2023-10-13T03:01:08;15.70;99.90
37646;DHT22;23489;49.600;6.138;2023-10-13T03:03:49;15.70;99.90
37646;DHT22;23489;49.600;6.138;2023-10-13T03:06:20;15.70;99.90
37646;DHT22;23489;49.600;6.138;2023-10-13T03:08:51;15.70;99.90
37646;DHT22;23489;49.600;6.138;2023-10-13T03:11:17;15.70;99.90
37646;DHT22;23489;49.600;6.138;2023-10-13T03:13:47;15.70;99.90
37646;DHT22;23489;49.600;6.138;2023-10-13T03:16:15;15.70;99.90
37646;DHT22;23489;49.600;6.138;2023-10-13T03:18:42;15.70;99.90
37646;DHT22;23489;49.600;6.138;2023-10-13T03:21:17;15.70;99.90
37646;DHT22;23489;49.600;6.138;2023-10-13T03:23:54;15.60;99.90
37646;DHT22;23489;49.600;6.138;2023-10-13T03:26:19;15.60;99.90
37646;DHT22;23489;49.600;6.138;2023-10-13T03:28:46;15.60;99.90
37646;DHT22;23489;49.600;6.138;2023-10-13T03:31:20;15.60;99.90
37646;DHT22;23489;49.600;6.138;2023-10-13T03:33:53;15.60;99.90
37646;DHT22;23489;49.600;6.138;2023-10-13T03:36:24;15.60;99.90
37646;DHT22;23489;49.600;6.138;2023-10-13T03:39:13;15.50;99.90
37646;DHT22;23489;49.600;6.138;2023-10-13T03:41:39;15.50;99.90
37646;DHT22;23489;49.600;6.138;2023-10-13T03:44:05;15.50;99.90
37646;DHT22;23489;49.600;6.138;2023-10-13T03:46:40;15.50;99.90
37646;DHT22;23489;49.600;6.138;2023-10-13T03:49:07;15.50;99.90
37646;DHT22;23489;49.600;6.138;2023-10-13T03:51:40;15.50;99.90
37646;DHT22;23489;49.600;6.138;2023-10-13T03:54:06;15.50;99.90
37646;DHT22;23489;49.600;6.138;2023-10-13T03:56:35;15.50;99.90
37646;DHT22;23489;49.600;6.138;2023-10-13T03:59:03;15.40;99.90
37646;DHT22;23489;49.600;6.138;2023-10-13T04:01:35;15.40;99.90
37646;DHT22;23489;49.600;6.138;2023-10-13T04:04:14;15.40;99.90
37646;DHT22;23489;49.600;6.138;2023-10-13T04:07:00;15.40;99.90
37646;DHT22;23489;49.600;6.138;2023-10-13T04:09:38;15.40;99.90
37646;DHT22;23489;49.600;6.138;2023-10-13T04:12:12;15.30;99.90
37646;DHT22;23489;49.600;6.138;2023-10-13T04:14:41;15.30;99.90
37646;DHT22;23489;49.600;6.138;2023-10-13T04:17:26;15.30;99.90
37646;DHT22;23489;49.600;6.138;2023-10-13T04:19:53;15.30;99.90
37646;DHT22;23489;49.600;6.138;2023-10-13T04:22:33;15.30;99.90
37646;DHT22;23489;49.600;6.138;2023-10-13T04:25:44;15.30;99.90
37646;DHT22;23489;49.600;6.138;2023-10-13T04:28:07;15.30;99.90
37646;DHT22;23489;49.600;6.138;2023-10-13T04:30:39;15.30;99.90
37646;DHT22;23489;49.600;6.138;2023-10-13T04:33:31;15.30;99.90
37646;DHT22;23489;49.600;6.138;2023-10-13T04:36:04;15.30;99.90
37646;DHT22;23489;49.600;6.138;2023-10-13T04:38:49;15.30;99.90
37646;DHT22;23489;49.600;6.138;2023-10-13T04:43:50;15.30;99.90
37646;DHT22;23489;49.600;6.138;2023-10-13T04:46:23;15.20;99.90
37646;DHT22;23489;49.600;6.138;2023-10-13T04:49:07;15.20;99.90
37646;DHT22;23489;49.600;6.138;2023-10-13T04:51:38;15.10;99.90
37646;DHT22;23489;49.600;6.138;2023-10-13T04:54:37;15.10;99.90
37646;DHT22;23489;49.600;6.138;2023-10-13T04:57:25;15.10;99.90
37646;DHT22;23489;49.600;6.138;2023-10-13T05:00:01;15.10;99.90
37646;DHT22;23489;49.600;6.138;2023-10-13T05:02:30;15.10;99.90
37646;DHT22;23489;49.600;6.138;2023-10-13T05:07:47;15.10;99.90
37646;DHT22;23489;49.600;6.138;2023-10-13T05:10:32;15.10;99.90
37646;DHT22;23489;49.600;6.138;2023-10-13T05:13:16;15.10;99.90
37646;DHT22;23489;49.600;6.138;2023-10-13T05:16:00;15.10;99.90
37646;DHT22;23489;49.600;6.138;2023-10-13T05:18:44;15.10;99.90
37646;DHT22;23489;49.600;6.138;2023-10-13T05:21:29;15.10;99.90
37646;DHT22;23489;49.600;6.138;2023-10-13T05:24:21;15.00;99.90
37646;DHT22;23489;49.600;6.138;2023-10-13T05:27:05;15.00;99.90
37646;DHT22;23489;49.600;6.138;2023-10-13T05:29:49;14.90;99.90
37646;DHT22;23489;49.600;6.138;2023-10-13T05:32:33;14.90;99.90
37646;DHT22;23489;49.600;6.138;2023-10-13T05:35:19;14.80;99.90
37646;DHT22;23489;49.600;6.138;2023-10-13T05:38:03;14.80;99.90
37646;DHT22;23489;49.600;6.138;2023-10-13T05:41:00;14.80;99.90
37646;DHT22;23489;49.600;6.138;2023-10-13T05:43:45;14.80;99.90
37646;DHT22;23489;49.600;6.138;2023-10-13T05:46:29;14.80;99.90
37646;DHT22;23489;49.600;6.138;2023-10-13T05:49:14;14.80;99.90
37646;DHT22;23489;49.600;6.138;2023-10-13T05:51:43;14.80;99.90
37646;DHT22;23489;49.600;6.138;2023-10-13T05:54:18;14.80;99.90
37646;DHT22;23489;49.600;6.138;2023-10-13T05:56:50;14.80;99.90
37646;DHT22;23489;49.600;6.138;2023-10-13T05:59:37;14.80;99.90
37646;DHT22;23489;49.600;6.138;2023-10-13T06:02:22;14.90;99.90
37646;DHT22;23489;49.600;6.138;2023-10-13T06:05:07;14.90;99.90
37646;DHT22;23489;49.600;6.138;2023-10-13T06:07:51;14.90;99.90
37646;DHT22;23489;49.600;6.138;2023-10-13T06:10:36;14.90;99.90
37646;DHT22;23489;49.600;6.138;2023-10-13T06:13:20;15.00;99.90
37646;DHT22;23489;49.600;6.138;2023-10-13T06:16:14;15.00;99.90
37646;DHT22;23489;49.600;6.138;2023-10-13T06:18:58;15.00;99.90
37646;DHT22;23489;49.600;6.138;2023-10-13T06:21:43;15.10;99.90
37646;DHT22;23489;49.600;6.138;2023-10-13T06:24:27;15.10;99.90
37646;DHT22;23489;49.600;6.138;2023-10-13T06:27:11;15.20;99.90
37646;DHT22;23489;49.600;6.138;2023-10-13T06:29:55;15.20;99.90
37646;DHT22;23489;49.600;6.138;2023-10-13T06:32:21;15.20;99.90
37646;DHT22;23489;49.600;6.138;2023-10-13T06:34:54;15.30;99.90
37646;DHT22;23489;49.600;6.138;2023-10-13T06:37:23;15.30;99.90
37646;DHT22;23489;49.600;6.138;2023-10-13T06:39:56;15.30;99.90
37646;DHT22;23489;49.600;6.138;2023-10-13T06:42:23;15.40;99.90
37646;DHT22;23489;49.600;6.138;2023-10-13T06:44:52;15.40;99.90
37646;DHT22;23489;49.600;6.138;2023-10-13T06:47:19;15.50;99.90
37646;DHT22;23489;49.600;6.138;2023-10-13T06:49:45;15.60;99.90
37646;DHT22;23489;49.600;6.138;2023-10-13T06:52:13;15.80;99.90
37646;DHT22;23489;49.600;6.138;2023-10-13T06:54:41;15.90;99.90
37646;DHT22;23489;49.600;6.138;2023-10-13T06:57:08;15.90;99.90
37646;DHT22;23489;49.600;6.138;2023-10-13T06:59:40;16.00;99.90
37646;DHT22;23489;49.600;6.138;2023-10-13T07:02:06;16.00;99.90
37646;DHT22;23489;49.600;6.138;2023-10-13T07:04:33;16.00;99.90
37646;DHT22;23489;49.600;6.138;2023-10-13T07:06:59;16.00;99.90
37646;DHT22;23489;49.600;6.138;2023-10-13T07:09:26;16.00;99.90
37646;DHT22;23489;49.600;6.138;2023-10-13T07:12:01;16.00;99.90
37646;DHT22;23489;49.600;6.138;2023-10-13T07:14:28;16.00;99.90
37646;DHT22;23489;49.600;6.138;2023-10-13T07:16:59;16.00;99.90
37646;DHT22;23489;49.600;6.138;2023-10-13T07:19:25;16.00;99.90
37646;DHT22;23489;49.600;6.138;2023-10-13T07:21:55;16.00;99.90
37646;DHT22;23489;49.600;6.138;2023-10-13T07:24:26;16.00;99.90
37646;DHT22;23489;49.600;6.138;2023-10-13T07:26:58;16.20;99.90
37646;DHT22;23489;49.600;6.138;2023-10-13T07:29:30;16.20;99.90
37646;DHT22;23489;49.600;6.138;2023-10-13T07:31:55;16.30;99.90
37646;DHT22;23489;49.600;6.138;2023-10-13T07:34:21;16.40;99.90
37646;DHT22;23489;49.600;6.138;2023-10-13T07:36:57;16.40;99.90
37646;DHT22;23489;49.600;6.138;2023-10-13T07:39:25;16.40;99.90
37646;DHT22;23489;49.600;6.138;2023-10-13T07:41:51;16.50;99.90
37646;DHT22;23489;49.600;6.138;2023-10-13T07:44:29;16.50;99.90
37646;DHT22;23489;49.600;6.138;2023-10-13T07:46:57;16.60;99.90
37646;DHT22;23489;49.600;6.138;2023-10-13T07:49:29;16.60;99.90
37646;DHT22;23489;49.600;6.138;2023-10-13T07:51:59;16.70;99.90
37646;DHT22;23489;49.600;6.138;2023-10-13T07:54:26;16.80;99.90
37646;DHT22;23489;49.600;6.138;2023-10-13T07:56:52;16.90;99.90
37646;DHT22;23489;49.600;6.138;2023-10-13T07:59:20;17.00;99.90
37646;DHT22;23489;49.600;6.138;2023-10-13T08:01:49;17.20;99.90
37646;DHT22;23489;49.600;6.138;2023-10-13T08:04:34;17.40;99.90
37646;DHT22;23489;49.600;6.138;2023-10-13T08:07:02;17.60;99.90
37646;DHT22;23489;49.600;6.138;2023-10-13T08:09:38;17.90;99.90
37646;DHT22;23489;49.600;6.138;2023-10-13T08:12:06;18.10;99.90
37646;DHT22;23489;49.600;6.138;2023-10-13T08:14:36;18.30;99.90
37646;DHT22;23489;49.600;6.138;2023-10-13T08:17:04;18.50;99.90
37646;DHT22;23489;49.600;6.138;2023-10-13T08:19:33;19.10;99.90
37646;DHT22;23489;49.600;6.138;2023-10-13T08:22:11;19.80;99.90
37646;DHT22;23489;49.600;6.138;2023-10-13T08:24:49;20.40;99.90
37646;DHT22;23489;49.600;6.138;2023-10-13T08:27:15;21.20;99.90
37646;DHT22;23489;49.600;6.138;2023-10-13T08:29:41;21.60;99.90
37646;DHT22;23489;49.600;6.138;2023-10-13T08:32:22;22.20;99.90
37646;DHT22;23489;49.600;6.138;2023-10-13T08:34:58;22.60;99.90
37646;DHT22;23489;49.600;6.138;2023-10-13T08:37:23;22.40;99.90
37646;DHT22;23489;49.600;6.138;2023-10-13T08:39:55;21.90;99.90
37646;DHT22;23489;49.600;6.138;2023-10-13T08:44:59;20.30;99.90
37646;DHT22;23489;49.600;6.138;2023-10-13T08:47:30;19.90;99.90
37646;DHT22;23489;49.600;6.138;2023-10-13T08:50:03;19.40;99.90
37646;DHT22;23489;49.600;6.138;2023-10-13T08:52:48;19.10;99.90
37646;DHT22;23489;49.600;6.138;2023-10-13T08:55:14;19.10;99.90
37646;DHT22;23489;49.600;6.138;2023-10-13T08:57:59;19.10;99.90
37646;DHT22;23489;49.600;6.138;2023-10-13T09:00:40;19.00;99.90
37646;DHT22;23489;49.600;6.138;2023-10-13T09:03:38;19.00;99.90
37646;DHT22;23489;49.600;6.138;2023-10-13T09:06:12;19.10;99.90
37646;DHT22;23489;49.600;6.138;2023-10-13T09:08:40;19.70;99.90
37646;DHT22;23489;49.600;6.138;2023-10-13T09:11:25;20.60;99.90
37646;DHT22;23489;49.600;6.138;2023-10-13T09:13:52;21.50;99.90
37646;DHT22;23489;49.600;6.138;2023-10-13T09:16:17;22.30;99.90
37646;DHT22;23489;49.600;6.138;2023-10-13T09:19:02;22.90;99.90
37646;DHT22;23489;49.600;6.138;2023-10-13T09:21:37;22.20;99.90
37646;DHT22;23489;49.600;6.138;2023-10-13T09:24:07;21.50;99.90
37646;DHT22;23489;49.600;6.138;2023-10-13T09:26:42;21.00;99.90
37646;DHT22;23489;49.600;6.138;2023-10-13T09:29:20;21.10;99.90
37646;DHT22;23489;49.600;6.138;2023-10-13T09:31:46;21.10;99.90
37646;DHT22;23489;49.600;6.138;2023-10-13T09:34:23;21.40;99.90
37646;DHT22;23489;49.600;6.138;2023-10-13T09:36:49;21.50;99.90
37646;DHT22;23489;49.600;6.138;2023-10-13T09:39:22;21.20;99.90
37646;DHT22;23489;49.600;6.138;2023-10-13T09:42:07;21.10;99.90
37646;DHT22;23489;49.600;6.138;2023-10-13T09:44:36;21.00;99.90
37646;DHT22;23489;49.600;6.138;2023-10-13T09:47:03;21.20;99.90
37646;DHT22;23489;49.600;6.138;2023-10-13T09:49:35;21.80;99.90
37646;DHT22;23489;49.600;6.138;2023-10-13T09:52:14;23.00;99.90
37646;DHT22;23489;49.600;6.138;2023-10-13T09:54:49;24.80;99.90
37646;DHT22;23489;49.600;6.138;2023-10-13T09:57:25;26.40;99.90
37646;DHT22;23489;49.600;6.138;2023-10-13T10:00:00;26.60;99.90
37646;DHT22;23489;49.600;6.138;2023-10-13T10:02:36;25.70;99.90
37646;DHT22;23489;49.600;6.138;2023-10-13T10:05:08;25.60;99.90
37646;DHT22;23489;49.600;6.138;2023-10-13T10:07:40;25.20;99.90
37646;DHT22;23489;49.600;6.138;2023-10-13T10:10:09;24.80;99.90
37646;DHT22;23489;49.600;6.138;2023-10-13T10:17:53;23.80;99.90
37646;DHT22;23489;49.600;6.138;2023-10-13T10:20:32;23.40;99.90
37646;DHT22;23489;49.600;6.138;2023-10-13T10:23:05;23.20;99.90
37646;DHT22;23489;49.600;6.138;2023-10-13T10:25:34;23.10;99.90
37646;DHT22;23489;49.600;6.138;2023-10-13T10:28:04;23.10;99.90
37646;DHT22;23489;49.600;6.138;2023-10-13T10:30:33;23.10;99.90
37646;DHT22;23489;49.600;6.138;2023-10-13T10:33:00;23.70;99.90
37646;DHT22;23489;49.600;6.138;2023-10-13T10:35:27;24.40;99.90
37646;DHT22;23489;49.600;6.138;2023-10-13T10:38:07;24.50;99.90
37646;DHT22;23489;49.600;6.138;2023-10-13T10:40:49;24.60;99.90
37646;DHT22;23489;49.600;6.138;2023-10-13T10:43:43;24.20;99.90
37646;DHT22;23489;49.600;6.138;2023-10-13T10:46:11;24.00;99.90
37646;DHT22;23489;49.600;6.138;2023-10-13T10:48:37;23.90;99.90
37646;DHT22;23489;49.600;6.138;2023-10-13T10:51:14;23.90;99.90
37646;DHT22;23489;49.600;6.138;2023-10-13T10:53:50;23.50;99.90
37646;DHT22;23489;49.600;6.138;2023-10-13T10:56:22;23.20;99.90
37646;DHT22;23489;49.600;6.138;2023-10-13T10:58:54;22.90;99.90
37646;DHT22;23489;49.600;6.138;2023-10-13T11:01:22;22.90;99.90
37646;DHT22;23489;49.600;6.138;2023-10-13T11:03:54;22.90;99.90
37646;DHT22;23489;49.600;6.138;2023-10-13T11:06:23;23.00;99.90
37646;DHT22;23489;49.600;6.138;2023-10-13T11:08:50;23.00;99.90
37646;DHT22;23489;49.600;6.138;2023-10-13T11:11:29;23.00;99.90
37646;DHT22;23489;49.600;6.138;2023-10-13T11:13:59;23.10;99.90
37646;DHT22;23489;49.600;6.138;2023-10-13T11:16:45;23.30;99.90
37646;DHT22;23489;49.600;6.138;2023-10-13T11:19:19;23.40;99.90
37646;DHT22;23489;49.600;6.138;2023-10-13T11:21:46;23.50;99.90
37646;DHT22;23489;49.600;6.138;2023-10-13T11:24:13;23.60;99.90
37646;DHT22;23489;49.600;6.138;2023-10-13T11:26:38;23.70;99.90
37646;DHT22;23489;49.600;6.138;2023-10-13T11:29:15;23.80;99.90
37646;DHT22;23489;49.600;6.138;2023-10-13T11:31:44;23.80;99.90
37646;DHT22;23489;49.600;6.138;2023-10-13T11:34:11;23.70;99.90
37646;DHT22;23489;49.600;6.138;2023-10-13T11:36:41;23.50;99.90
37646;DHT22;23489;49.600;6.138;2023-10-13T11:39:07;23.50;99.90
37646;DHT22;23489;49.600;6.138;2023-10-13T11:41:33;23.50;99.90
37646;DHT22;23489;49.600;6.138;2023-10-13T11:44:10;23.60;99.90
37646;DHT22;23489;49.600;6.138;2023-10-13T11:46:49;23.60;99.90
37646;DHT22;23489;49.600;6.138;2023-10-13T11:49:21;23.50;99.90
37646;DHT22;23489;49.600;6.138;2023-10-13T11:51:53;23.30;99.90
37646;DHT22;23489;49.600;6.138;2023-10-13T11:54:27;23.10;99.90
37646;DHT22;23489;49.600;6.138;2023-10-13T11:56:53;22.80;99.90
37646;DHT22;23489;49.600;6.138;2023-10-13T11:59:23;22.60;99.90
37646;DHT22;23489;49.600;6.138;2023-10-13T12:01:52;22.50;99.90
37646;DHT22;23489;49.600;6.138;2023-10-13T12:04:36;22.60;99.90
37646;DHT22;23489;49.600;6.138;2023-10-13T12:07:17;22.80;99.90
37646;DHT22;23489;49.600;6.138;2023-10-13T12:09:50;22.90;99.90
37646;DHT22;23489;49.600;6.138;2023-10-13T12:12:25;23.10;99.90
37646;DHT22;23489;49.600;6.138;2023-10-13T12:14:51;23.10;99.90
37646;DHT22;23489;49.600;6.138;2023-10-13T12:17:24;23.30;99.90
37646;DHT22;23489;49.600;6.138;2023-10-13T12:20:02;23.40;99.90
37646;DHT22;23489;49.600;6.138;2023-10-13T12:22:31;23.70;99.90
37646;DHT22;23489;49.600;6.138;2023-10-13T12:25:08;23.80;99.90
37646;DHT22;23489;49.600;6.138;2023-10-13T12:27:53;23.90;99.90
37646;DHT22;23489;49.600;6.138;2023-10-13T12:30:25;24.10;99.90
37646;DHT22;23489;49.600;6.138;2023-10-13T12:33:10;24.10;99.90
37646;DHT22;23489;49.600;6.138;2023-10-13T12:35:35;24.10;99.90
37646;DHT22;23489;49.600;6.138;2023-10-13T12:38:10;24.20;99.90
37646;DHT22;23489;49.600;6.138;2023-10-13T12:40:56;24.20;99.90
37646;DHT22;23489;49.600;6.138;2023-10-13T12:43:40;24.00;99.90
37646;DHT22;23489;49.600;6.138;2023-10-13T12:46:24;23.90;99.90
37646;DHT22;23489;49.600;6.138;2023-10-13T12:49:08;23.90;99.90
37646;DHT22;23489;49.600;6.138;2023-10-13T12:52:00;23.90;99.90
37646;DHT22;23489;49.600;6.138;2023-10-13T12:54:25;24.00;99.90
37646;DHT22;23489;49.600;6.138;2023-10-13T12:57:00;24.10;99.90
37646;DHT22;23489;49.600;6.138;2023-10-13T12:59:26;24.20;99.90
37646;DHT22;23489;49.600;6.138;2023-10-13T13:01:52;24.20;99.90
37646;DHT22;23489;49.600;6.138;2023-10-13T13:04:18;24.30;99.90
37646;DHT22;23489;49.600;6.138;2023-10-13T13:06:49;24.40;99.90
37646;DHT22;23489;49.600;6.138;2023-10-13T13:09:15;24.40;99.90
37646;DHT22;23489;49.600;6.138;2023-10-13T13:11:41;24.40;99.90
37646;DHT22;23489;49.600;6.138;2023-10-13T13:14:07;24.40;99.90
37646;DHT22;23489;49.600;6.138;2023-10-13T13:16:33;24.40;99.90
37646;DHT22;23489;49.600;6.138;2023-10-13T13:18:58;24.40;99.90
37646;DHT22;23489;49.600;6.138;2023-10-13T13:21:24;24.30;99.90
37646;DHT22;23489;49.600;6.138;2023-10-13T13:23:50;24.20;99.90
37646;DHT22;23489;49.600;6.138;2023-10-13T13:26:15;24.20;99.90
37646;DHT22;23489;49.600;6.138;2023-10-13T13:28:41;24.30;99.90
37646;DHT22;23489;49.600;6.138;2023-10-13T13:31:08;24.30;99.90
37646;DHT22;23489;49.600;6.138;2023-10-13T13:33:34;24.40;99.90
37646;DHT22;23489;49.600;6.138;2023-10-13T13:36:06;24.40;99.90
37646;DHT22;23489;49.600;6.138;2023-10-13T13:38:32;24.30;99.90
37646;DHT22;23489;49.600;6.138;2023-10-13T13:41:01;24.40;99.90
37646;DHT22;23489;49.600;6.138;2023-10-13T13:43:34;24.40;99.90
37646;DHT22;23489;49.600;6.138;2023-10-13T13:46:03;24.50;99.90
37646;DHT22;23489;49.600;6.138;2023-10-13T13:48:40;24.60;99.90
37646;DHT22;23489;49.600;6.138;2023-10-13T13:51:06;24.70;99.90
37646;DHT22;23489;49.600;6.138;2023-10-13T13:53:40;24.80;99.90
37646;DHT22;23489;49.600;6.138;2023-10-13T13:56:10;24.90;99.90
37646;DHT22;23489;49.600;6.138;2023-10-13T13:58:36;24.90;99.90
37646;DHT22;23489;49.600;6.138;2023-10-13T14:01:03;24.90;99.90
37646;DHT22;23489;49.600;6.138;2023-10-13T14:03:40;24.80;99.90
37646;DHT22;23489;49.600;6.138;2023-10-13T14:06:20;24.80;99.90
37646;DHT22;23489;49.600;6.138;2023-10-13T14:08:49;24.70;99.90
37646;DHT22;23489;49.600;6.138;2023-10-13T14:11:16;24.60;99.90
37646;DHT22;23489;49.600;6.138;2023-10-13T14:14:12;24.50;99.90
37646;DHT22;23489;49.600;6.138;2023-10-13T14:16:41;24.60;99.90
37646;DHT22;23489;49.600;6.138;2023-10-13T14:19:10;24.50;99.90
37646;DHT22;23489;49.600;6.138;2023-10-13T14:21:36;24.50;99.90
37646;DHT22;23489;49.600;6.138;2023-10-13T14:24:01;24.40;99.90
37646;DHT22;23489;49.600;6.138;2023-10-13T14:26:28;24.40;99.90
37646;DHT22;23489;49.600;6.138;2023-10-13T14:28:54;24.40;99.90
37646;DHT22;23489;49.600;6.138;2023-10-13T14:31:35;24.40;99.90
37646;DHT22;23489;49.600;6.138;2023-10-13T14:34:04;24.30;99.90
37646;DHT22;23489;49.600;6.138;2023-10-13T14:36:30;24.30;99.90
37646;DHT22;23489;49.600;6.138;2023-10-13T14:39:00;24.30;99.90
37646;DHT22;23489;49.600;6.138;2023-10-13T14:41:26;24.20;99.90
37646;DHT22;23489;49.600;6.138;2023-10-13T14:43:51;24.20;99.90
37646;DHT22;23489;49.600;6.138;2023-10-13T14:46:17;24.30;99.90
37646;DHT22;23489;49.600;6.138;2023-10-13T14:48:43;24.20;99.90
37646;DHT22;23489;49.600;6.138;2023-10-13T14:51:12;24.20;99.90
37646;DHT22;23489;49.600;6.138;2023-10-13T14:53:42;24.30;99.90
37646;DHT22;23489;49.600;6.138;2023-10-13T14:56:12;24.30;99.90
37646;DHT22;23489;49.600;6.138;2023-10-13T14:58:41;24.20;99.90
37646;DHT22;23489;49.600;6.138;2023-10-13T15:01:16;24.20;99.90
37646;DHT22;23489;49.600;6.138;2023-10-13T15:03:42;24.20;99.90
37646;DHT22;23489;49.600;6.138;2023-10-13T15:06:14;24.20;99.90
37646;DHT22;23489;49.600;6.138;2023-10-13T15:08:39;24.20;99.90
37646;DHT22;23489;49.600;6.138;2023-10-13T15:11:11;24.10;99.90
37646;DHT22;23489;49.600;6.138;2023-10-13T15:13:40;24.10;99.90
37646;DHT22;23489;49.600;6.138;2023-10-13T15:16:15;24.00;99.90
37646;DHT22;23489;49.600;6.138;2023-10-13T15:18:47;24.00;99.90
37646;DHT22;23489;49.600;6.138;2023-10-13T15:21:20;24.00;99.90
37646;DHT22;23489;49.600;6.138;2023-10-13T15:23:51;23.90;99.90
37646;DHT22;23489;49.600;6.138;2023-10-13T15:26:17;23.80;99.90
37646;DHT22;23489;49.600;6.138;2023-10-13T15:28:43;23.80;99.90
37646;DHT22;23489;49.600;6.138;2023-10-13T15:31:16;23.70;99.90
37646;DHT22;23489;49.600;6.138;2023-10-13T15:33:51;23.60;99.90
37646;DHT22;23489;49.600;6.138;2023-10-13T15:36:20;23.60;99.90
37646;DHT22;23489;49.600;6.138;2023-10-13T15:38:46;23.50;99.90
37646;DHT22;23489;49.600;6.138;2023-10-13T15:41:20;23.50;99.90
37646;DHT22;23489;49.600;6.138;2023-10-13T15:43:46;23.40;99.90
37646;DHT22;23489;49.600;6.138;2023-10-13T15:46:15;23.30;99.90
37646;DHT22;23489;49.600;6.138;2023-10-13T15:48:41;23.30;99.90
37646;DHT22;23489;49.600;6.138;2023-10-13T15:51:10;23.30;99.90
37646;DHT22;23489;49.600;6.138;2023-10-13T15:53:38;23.20;99.90
37646;DHT22;23489;49.600;6.138;2023-10-13T15:56:03;23.20;99.90
37646;DHT22;23489;49.600;6.138;2023-10-13T15:58:46;23.10;99.90
37646;DHT22;23489;49.600;6.138;2023-10-13T16:01:12;23.00;99.90
37646;DHT22;23489;49.600;6.138;2023-10-13T16:03:39;23.00;99.90
37646;DHT22;23489;49.600;6.138;2023-10-13T16:06:05;22.90;99.90
37646;DHT22;23489;49.600;6.138;2023-10-13T16:08:38;22.80;99.90
37646;DHT22;23489;49.600;6.138;2023-10-13T16:11:08;22.70;99.90
37646;DHT22;23489;49.600;6.138;2023-10-13T16:13:41;22.60;99.90
37646;DHT22;23489;49.600;6.138;2023-10-13T16:16:23;22.50;99.90